createdAt,value
2019-04-19T00:00:30.783Z,84.44
2019-04-19T00:01:35.299Z,84.34
2019-04-19T00:02:37.764Z,83.97
2019-04-19T00:03:34.063Z,83.49
2019-04-19T00:04:31.206Z,83.30
2019-04-19T00:05:35.233Z,83.68
2019-04-19T00:06:35.622Z,84.63
2019-04-19T00:07:30.614Z,83.97
2019-04-19T00:08:42.654Z,83.97
2019-04-19T00:09:41.519Z,84.44
2019-04-19T00:10:39.578Z,83.68
2019-04-19T00:11:37.713Z,83.11
2019-04-19T00:12:40.351Z,83.11
2019-04-19T00:13:28.961Z,83.59
2019-04-19T00:14:29.646Z,83.11
2019-04-19T00:15:28.789Z,83.30
2019-04-19T00:16:29.790Z,83.59
2019-04-19T00:17:32.318Z,83.59
2019-04-19T00:18:28.353Z,83.49
2019-04-19T00:19:44.441Z,83.39
2019-04-19T00:20:49.931Z,83.30
2019-04-19T00:21:53.763Z,83.20
2019-04-19T00:22:44.210Z,84.06
2019-04-19T00:23:34.803Z,83.49
2019-04-19T00:24:27.543Z,83.39
2019-04-19T00:25:27.987Z,84.44
2019-04-19T00:26:27.554Z,84.06
2019-04-19T00:27:35.251Z,84.16
2019-04-19T00:28:36.645Z,83.20
2019-04-19T00:29:37.906Z,83.49
2019-04-19T00:30:37.694Z,84.06
2019-04-19T00:31:37.299Z,84.34
2019-04-19T00:32:40.638Z,85.01
2019-04-19T00:33:34.433Z,84.72
2019-04-19T00:34:27.309Z,83.87
2019-04-19T00:35:26.468Z,84.16
2019-04-19T00:36:26.002Z,83.59
2019-04-19T00:37:26.828Z,83.78
2019-04-19T00:38:38.343Z,84.25
2019-04-19T00:39:41.360Z,84.44
2019-04-19T00:40:38.175Z,84.44
2019-04-19T00:41:42.125Z,84.63
2019-04-19T00:42:40.008Z,84.53
2019-04-19T00:43:40.817Z,84.25
2019-04-19T00:44:45.452Z,83.87
2019-04-19T00:45:38.516Z,84.16
2019-04-19T00:46:38.453Z,84.63
2019-04-19T00:47:41.148Z,84.16
2019-04-19T00:48:39.627Z,84.06
2019-04-19T00:49:33.884Z,84.25
2019-04-19T00:50:38.092Z,85.01
2019-04-19T00:51:46.155Z,85.20
2019-04-19T00:52:42.128Z,84.82
2019-04-19T00:53:32.941Z,84.16
2019-04-19T00:54:31.997Z,84.25
2019-04-19T00:55:36.088Z,84.82
2019-04-19T00:56:33.568Z,85.77
2019-04-19T00:57:33.684Z,86.72
2019-04-19T00:58:29.061Z,86.34
2019-04-19T00:59:24.404Z,86.63
2019-04-19T01:00:30.229Z,86.24
2019-04-19T01:01:26.120Z,85.11
2019-04-19T01:02:24.531Z,85.30
2019-04-19T01:03:30.745Z,84.63
2019-04-19T01:04:25.677Z,85.30
2019-04-19T01:05:27.026Z,85.77
2019-04-19T01:06:33.007Z,85.68
2019-04-19T01:07:29.309Z,85.39
2019-04-19T01:08:24.817Z,84.82
2019-04-19T01:09:33.386Z,84.82
2019-04-19T01:10:34.503Z,84.53
2019-04-19T01:11:33.990Z,84.82
2019-04-19T01:12:34.530Z,85.20
2019-04-19T01:13:38.169Z,85.20
2019-04-19T01:14:33.343Z,85.30
2019-04-19T01:15:29.716Z,85.11
2019-04-19T01:16:29.466Z,85.39
2019-04-19T01:17:34.979Z,85.68
2019-04-19T01:18:33.166Z,86.05
2019-04-19T01:19:21.501Z,85.39
2019-04-19T01:20:20.506Z,85.30
2019-04-19T01:21:20.213Z,85.68
2019-04-19T01:22:23.917Z,85.77
2019-04-19T01:23:21.286Z,85.30
2019-04-19T01:24:26.471Z,84.72
2019-04-19T01:25:24.065Z,85.11
2019-04-19T01:26:19.943Z,84.82
2019-04-19T01:27:24.840Z,85.39
2019-04-19T01:28:22.965Z,85.58
2019-04-19T01:29:21.203Z,85.01
2019-04-19T01:30:28.786Z,85.39
2019-04-19T01:31:22.480Z,85.49
2019-04-19T01:32:21.141Z,85.39
2019-04-19T01:33:24.851Z,85.68
2019-04-19T01:34:24.899Z,85.20
2019-04-19T01:35:20.267Z,85.20
2019-04-19T01:36:25.291Z,85.01
2019-04-19T01:37:23.291Z,85.11
2019-04-19T01:38:19.041Z,85.77
2019-04-19T01:39:30.973Z,85.77
2019-04-19T01:40:37.576Z,84.63
2019-04-19T01:41:33.746Z,85.01
2019-04-19T01:42:38.880Z,84.34
2019-04-19T01:43:34.336Z,84.53
2019-04-19T01:44:37.084Z,84.34
2019-04-19T01:45:29.145Z,84.53
2019-04-19T01:46:36.747Z,84.53
2019-04-19T01:47:38.924Z,84.91
2019-04-19T01:48:34.112Z,84.91
2019-04-19T01:49:29.969Z,85.20
2019-04-19T01:50:36.824Z,85.01
2019-04-19T01:51:38.873Z,84.63
2019-04-19T01:52:41.846Z,84.72
2019-04-19T01:53:33.507Z,84.91
2019-04-19T01:54:32.404Z,84.82
2019-04-19T01:55:23.602Z,84.91
2019-04-19T01:56:18.837Z,84.72
2019-04-19T01:57:17.338Z,85.11
2019-04-19T01:58:18.008Z,84.72
2019-04-19T01:59:15.982Z,85.01
2019-04-19T02:00:24.430Z,85.30
2019-04-19T02:01:20.603Z,85.49
2019-04-19T02:02:18.059Z,85.11
2019-04-19T02:03:14.812Z,85.58
2019-04-19T02:04:20.769Z,85.96
2019-04-19T02:05:17.886Z,86.43
2019-04-19T02:06:16.265Z,85.96
2019-04-19T02:07:21.751Z,85.77
2019-04-19T02:08:15.725Z,85.39
2019-04-19T02:09:25.969Z,85.96
2019-04-19T02:10:24.665Z,85.86
2019-04-19T02:11:27.927Z,85.20
2019-04-19T02:12:26.131Z,85.20
2019-04-19T02:13:21.894Z,85.58
2019-04-19T02:14:20.320Z,86.24
2019-04-19T02:15:24.632Z,85.39
2019-04-19T02:16:19.707Z,85.96
2019-04-19T02:17:16.037Z,85.68
2019-04-19T02:18:21.881Z,85.86
2019-04-19T02:19:18.867Z,86.15
2019-04-19T02:20:14.054Z,86.72
2019-04-19T02:21:19.736Z,87.29
2019-04-19T02:22:20.167Z,87.38
2019-04-19T02:23:14.634Z,86.82
2019-04-19T02:24:12.646Z,86.24
2019-04-19T02:25:15.947Z,86.34
2019-04-19T02:26:14.616Z,85.96
2019-04-19T02:27:13.477Z,86.05
2019-04-19T02:28:19.949Z,85.96
2019-04-19T02:29:19.054Z,86.82
2019-04-19T02:30:27.339Z,87.10
2019-04-19T02:31:37.860Z,87.57
2019-04-19T02:32:43.662Z,87.48
2019-04-19T02:33:45.544Z,87.38
2019-04-19T02:35:34.685Z,87.86
2019-04-19T02:36:48.316Z,87.95
2019-04-19T02:37:33.855Z,86.91
2019-04-19T02:38:36.455Z,87.29
2019-04-19T02:39:54.557Z,87.57
2019-04-19T02:40:52.555Z,87.86
2019-04-19T02:41:59.418Z,88.24
2019-04-19T02:42:40.095Z,87.19
2019-04-19T02:43:45.942Z,86.63
2019-04-19T02:44:45.861Z,87.19
2019-04-19T02:45:32.619Z,87.38
2019-04-19T02:49:53.556Z,88.20
2019-04-19T02:51:02.441Z,88.67
2019-04-19T02:51:36.688Z,88.90
2019-04-19T02:54:40.807Z,89.09
2019-04-19T02:55:31.566Z,88.43
2019-04-19T02:56:59.475Z,88.48
2019-04-19T02:57:52.284Z,88.81
2019-04-19T02:58:34.454Z,88.34
2019-04-19T02:59:41.014Z,87.43
2019-04-19T03:01:40.173Z,87.82
2019-04-19T03:02:42.374Z,86.87
2019-04-19T03:03:27.421Z,87.10
2019-04-19T03:04:47.887Z,87.29
2019-04-19T03:05:45.408Z,87.57
2019-04-19T03:06:24.167Z,87.38
2019-04-19T03:07:09.131Z,87.67
2019-04-19T03:08:06.475Z,87.48
2019-04-19T03:09:07.215Z,86.72
2019-04-19T03:10:12.888Z,87.29
2019-04-19T03:11:12.852Z,86.82
2019-04-19T03:12:26.638Z,85.96
2019-04-19T03:13:21.762Z,87.19
2019-04-19T03:14:18.046Z,88.05
2019-04-19T03:15:19.076Z,88.24
2019-04-19T03:16:27.093Z,87.72
2019-04-19T03:17:23.274Z,87.29
2019-04-19T03:18:29.083Z,85.49
2019-04-19T03:19:13.404Z,85.96
2019-04-19T03:20:24.395Z,85.30
2019-04-19T03:21:27.843Z,85.77
2019-04-19T03:22:24.347Z,86.91
2019-04-19T03:23:17.864Z,86.91
2019-04-19T03:24:20.396Z,87.38
2019-04-19T03:25:19.778Z,87.76
2019-04-19T03:26:22.053Z,87.76
2019-04-19T03:27:12.476Z,87.95
2019-04-19T03:28:15.497Z,87.86
2019-04-19T03:29:10.986Z,87.48
2019-04-19T03:30:27.113Z,87.86
2019-04-19T03:31:32.465Z,87.48
2019-04-19T03:32:59.673Z,88.15
2019-04-19T03:33:25.385Z,88.81
2019-04-19T03:34:31.087Z,88.15
2019-04-19T03:35:14.497Z,87.86
2019-04-19T03:36:25.819Z,88.15
2019-04-19T03:37:25.613Z,87.67
2019-04-19T03:38:18.632Z,87.10
2019-04-19T03:39:22.944Z,87.67
2019-04-19T03:40:24.679Z,87.95
2019-04-19T03:41:38.885Z,87.76
2019-04-19T03:42:22.395Z,86.72
2019-04-19T03:43:28.549Z,87.95
2019-04-19T03:44:18.458Z,88.53
2019-04-19T03:45:17.410Z,88.53
2019-04-19T03:46:17.367Z,89.00
2019-04-19T03:47:21.312Z,88.76
2019-04-19T03:48:22.344Z,88.57
2019-04-19T03:49:32.568Z,88.53
2019-04-19T03:50:20.028Z,88.53
2019-04-19T03:51:18.584Z,87.76
2019-04-19T03:52:21.924Z,87.67
2019-04-19T03:53:25.996Z,87.76
2019-04-19T03:54:17.998Z,88.15
2019-04-19T03:55:20.292Z,88.34
2019-04-19T03:56:17.828Z,88.90
2019-04-19T03:57:17.018Z,87.86
2019-04-19T03:58:07.371Z,88.43
2019-04-19T03:59:00.699Z,89.05
2019-04-19T04:00:00.375Z,89.43
2019-04-19T04:01:00.076Z,89.14
2019-04-19T04:02:01.037Z,89.24
2019-04-19T04:03:03.228Z,89.62
2019-04-19T04:04:07.401Z,90.09
2019-04-19T04:05:06.060Z,90.09
2019-04-19T04:05:59.958Z,89.72
2019-04-19T04:07:05.420Z,88.39
2019-04-19T04:08:04.376Z,88.86
2019-04-19T04:09:03.303Z,89.05
2019-04-19T04:10:01.035Z,89.24
2019-04-19T04:11:00.164Z,89.43
2019-04-19T04:12:09.223Z,89.72
2019-04-19T04:13:15.805Z,90.23
2019-04-19T04:14:12.545Z,90.28
2019-04-19T04:15:11.818Z,90.61
2019-04-19T04:16:12.826Z,88.67
2019-04-19T04:16:58.478Z,88.86
2019-04-19T04:17:58.532Z,89.72
2019-04-19T04:18:57.610Z,90.28
2019-04-19T04:19:57.213Z,90.85
2019-04-19T04:20:59.028Z,90.47
2019-04-19T04:21:57.349Z,89.62
2019-04-19T04:23:06.929Z,88.95
2019-04-19T04:24:10.250Z,89.33
2019-04-19T04:25:07.559Z,89.53
2019-04-19T04:26:04.327Z,88.48
2019-04-19T04:27:05.777Z,88.57
2019-04-19T04:28:03.774Z,88.57
2019-04-19T04:29:06.943Z,89.43
2019-04-19T04:30:06.040Z,89.90
2019-04-19T04:31:05.926Z,89.90
2019-04-19T04:32:05.386Z,89.14
2019-04-19T04:33:05.247Z,88.95
2019-04-19T04:34:06.054Z,89.24
2019-04-19T04:35:13.661Z,89.14
2019-04-19T04:36:19.758Z,89.14
2019-04-19T04:37:15.667Z,89.90
2019-04-19T04:38:05.985Z,90.19
2019-04-19T04:38:54.768Z,90.00
2019-04-19T04:39:55.619Z,90.19
2019-04-19T04:40:54.790Z,90.28
2019-04-19T04:42:09.771Z,89.72
2019-04-19T04:43:09.392Z,89.72
2019-04-19T04:44:13.474Z,89.24
2019-04-19T04:45:18.828Z,88.86
2019-04-19T04:46:32.702Z,89.33
2019-04-19T04:47:15.382Z,89.72
2019-04-19T04:48:08.765Z,89.72
2019-04-19T04:49:26.964Z,89.24
2019-04-19T04:50:05.265Z,89.14
2019-04-19T04:51:21.070Z,89.14
2019-04-19T04:52:04.527Z,89.14
2019-04-19T04:52:54.327Z,89.24
2019-04-19T04:53:53.303Z,89.33
2019-04-19T04:54:52.710Z,89.05
2019-04-19T04:55:57.965Z,89.14
2019-04-19T04:57:02.490Z,89.33
2019-04-19T04:57:57.226Z,89.33
2019-04-19T04:58:52.772Z,88.95
2019-04-19T04:59:54.239Z,89.33
2019-04-19T05:01:00.074Z,89.14
2019-04-19T05:02:02.526Z,89.62
2019-04-19T05:03:06.507Z,89.53
2019-04-19T05:04:07.403Z,89.90
2019-04-19T05:05:10.460Z,89.14
2019-04-19T05:06:11.187Z,89.33
2019-04-19T05:07:09.731Z,90.00
2019-04-19T05:08:13.970Z,89.72
2019-04-19T05:09:10.708Z,89.62
2019-04-19T05:10:10.807Z,89.24
2019-04-19T05:11:13.410Z,89.14
2019-04-19T05:12:15.501Z,89.14
2019-04-19T05:15:05.672Z,89.05
2019-04-19T05:16:17.000Z,89.43
2019-04-19T05:17:19.485Z,89.81
2019-04-19T05:18:17.315Z,89.14
2019-04-19T05:19:03.908Z,89.33
2019-04-19T05:20:10.017Z,89.62
2019-04-19T05:21:09.990Z,90.38
2019-04-19T05:22:05.851Z,90.09
2019-04-19T05:23:06.832Z,90.28
2019-04-19T05:24:09.344Z,90.38
2019-04-19T05:25:23.792Z,90.47
2019-04-19T05:26:11.944Z,90.47
2019-04-19T05:27:11.849Z,90.57
2019-04-19T05:28:11.373Z,90.66
2019-04-19T05:29:03.133Z,90.47
2019-04-19T05:29:51.575Z,91.24
2019-04-19T05:30:55.741Z,91.42
2019-04-19T05:31:52.951Z,91.33
2019-04-19T05:32:57.987Z,91.04
2019-04-19T05:34:11.205Z,90.76
2019-04-19T05:35:07.003Z,90.85
2019-04-19T05:36:12.748Z,90.57
2019-04-19T05:37:03.818Z,90.66
2019-04-19T05:38:03.413Z,89.81
2019-04-19T05:39:11.299Z,88.67
2019-04-19T05:40:04.782Z,88.43
2019-04-19T05:41:00.704Z,86.15
2019-04-19T05:42:00.095Z,84.82
2019-04-19T05:43:04.395Z,84.53
2019-04-19T05:45:20.746Z,84.77
2019-04-19T05:46:09.800Z,83.25
2019-04-19T05:47:04.689Z,82.96
2019-04-19T05:47:55.901Z,82.39
2019-04-19T05:48:53.635Z,82.05
2019-04-19T05:50:12.372Z,81.96
2019-04-19T05:51:16.766Z,81.38
2019-04-19T05:52:09.202Z,81.20
2019-04-19T05:52:58.559Z,80.44
2019-04-19T05:53:51.342Z,79.86
2019-04-19T05:54:45.116Z,79.52
2019-04-19T05:55:45.605Z,79.24
2019-04-19T05:56:50.451Z,78.96
2019-04-19T05:57:56.866Z,78.10
2019-04-19T05:58:55.768Z,78.38
2019-04-19T05:59:53.962Z,77.72
2019-04-19T06:00:58.162Z,77.05
2019-04-19T06:01:59.193Z,76.61
2019-04-19T06:02:59.922Z,77.62
2019-04-19T06:03:58.626Z,77.47
2019-04-19T06:05:13.075Z,76.33
2019-04-19T06:06:08.213Z,75.95
2019-04-19T06:07:01.634Z,75.47
2019-04-19T06:07:57.042Z,75.47
2019-04-19T06:08:44.480Z,74.80
2019-04-19T06:09:43.148Z,75.47
2019-04-19T06:10:49.705Z,74.71
2019-04-19T06:11:44.682Z,74.14
2019-04-19T06:12:43.769Z,75.19
2019-04-19T06:13:51.949Z,74.52
2019-04-19T06:15:12.401Z,74.04
2019-04-19T06:16:04.201Z,73.95
2019-04-19T06:16:56.539Z,73.95
2019-04-19T06:18:04.106Z,73.19
2019-04-19T06:18:52.965Z,73.32
2019-04-19T06:19:57.637Z,73.51
2019-04-19T06:21:04.463Z,72.94
2019-04-19T06:21:55.968Z,73.89
2019-04-19T06:23:03.433Z,72.46
2019-04-19T06:23:58.400Z,72.17
2019-04-19T06:24:57.093Z,72.85
2019-04-19T06:26:22.715Z,72.85
2019-04-19T06:27:08.616Z,73.51
2019-04-19T06:28:12.747Z,73.13
2019-04-19T06:30:08.781Z,72.85
2019-04-19T06:30:56.105Z,73.89
2019-04-19T06:32:03.597Z,74.08
2019-04-19T06:33:02.345Z,74.56
2019-04-19T06:33:57.924Z,73.51
2019-04-19T06:34:54.012Z,74.27
2019-04-19T06:35:48.530Z,74.46
2019-04-19T06:36:39.974Z,73.51
2019-04-19T06:37:40.475Z,73.22
2019-04-19T06:38:40.127Z,73.36
2019-04-19T06:39:39.516Z,71.61
2019-04-19T06:40:45.151Z,72.37
2019-04-19T06:41:47.043Z,71.64
2019-04-19T06:42:46.385Z,72.27
2019-04-19T06:43:52.076Z,71.32
2019-04-19T06:45:02.002Z,71.73
2019-04-19T06:45:53.198Z,73.74
2019-04-19T06:46:51.396Z,73.11
2019-04-19T06:47:48.334Z,71.64
2019-04-19T06:48:43.483Z,70.50
2019-04-19T06:49:40.021Z,70.31
2019-04-19T06:50:41.963Z,69.93
2019-04-19T06:51:45.579Z,70.21
2019-04-19T06:52:38.441Z,69.93
2019-04-19T06:53:44.448Z,69.54
2019-04-19T06:54:41.590Z,69.35
2019-04-19T06:55:44.131Z,68.78
2019-04-19T06:56:41.313Z,68.88
2019-04-19T06:57:47.520Z,68.88
2019-04-19T06:58:44.455Z,69.01
2019-04-19T06:59:52.065Z,67.77
2019-04-19T07:00:50.422Z,67.20
2019-04-19T07:01:43.744Z,67.10
2019-04-19T07:02:37.052Z,67.10
2019-04-19T07:03:36.523Z,66.44
2019-04-19T07:04:46.130Z,68.91
2019-04-19T07:05:46.419Z,68.91
2019-04-19T07:06:48.103Z,67.86
2019-04-19T07:08:03.234Z,67.10
2019-04-19T07:10:02.645Z,66.82
2019-04-19T07:11:00.518Z,65.77
2019-04-19T07:11:56.464Z,66.53
2019-04-19T07:12:55.306Z,66.91
2019-04-19T07:13:45.074Z,65.96
2019-04-19T07:14:36.529Z,65.58
2019-04-19T07:16:02.360Z,66.34
2019-04-19T07:16:55.777Z,66.05
2019-04-19T07:17:52.347Z,66.63
2019-04-19T07:18:46.375Z,66.53
2019-04-19T07:19:50.004Z,66.63
2019-04-19T07:20:56.287Z,66.91
2019-04-19T07:21:51.785Z,66.47
2019-04-19T07:22:53.043Z,66.47
2019-04-19T07:23:54.610Z,65.89
2019-04-19T07:25:03.089Z,66.38
2019-04-19T07:25:55.533Z,65.89
2019-04-19T07:26:56.299Z,65.99
2019-04-19T07:27:44.288Z,66.09
2019-04-19T07:28:36.480Z,65.70
2019-04-19T07:29:33.650Z,66.28
2019-04-19T07:30:32.881Z,66.09
2019-04-19T07:31:35.267Z,66.38
2019-04-19T07:32:40.786Z,65.33
2019-04-19T07:33:44.017Z,65.23
2019-04-19T07:34:47.879Z,65.13
2019-04-19T07:35:57.607Z,65.42
2019-04-19T07:36:56.392Z,65.61
2019-04-19T07:37:46.955Z,65.42
2019-04-19T07:38:55.208Z,64.37
2019-04-19T07:40:04.139Z,64.18
2019-04-19T07:40:48.961Z,64.18
2019-04-19T07:41:52.247Z,63.89
2019-04-19T07:42:51.962Z,63.89
2019-04-19T07:43:48.222Z,64.18
2019-04-19T07:44:43.692Z,65.61
2019-04-19T07:45:52.617Z,66.09
2019-04-19T07:46:50.041Z,65.70
2019-04-19T07:47:42.756Z,65.80
2019-04-19T07:48:30.816Z,66.09
2019-04-19T07:49:42.154Z,66.18
2019-04-19T07:50:42.369Z,65.70
2019-04-19T07:51:35.923Z,66.18
2019-04-19T07:52:40.203Z,66.12
2019-04-19T07:53:38.472Z,66.50
2019-04-19T07:54:33.150Z,67.65
2019-04-19T07:55:33.366Z,64.59
2019-04-19T07:56:44.741Z,64.40
2019-04-19T07:58:52.079Z,63.83
2019-04-19T07:59:55.040Z,65.36
2019-04-19T08:00:56.420Z,65.10
2019-04-19T08:02:01.517Z,63.86
2019-04-19T08:04:48.699Z,63.70
2019-04-19T08:04:58.735Z,63.89
2019-04-19T08:05:55.015Z,63.32
2019-04-19T08:08:59.977Z,61.98
2019-04-19T08:11:02.310Z,63.89
2019-04-19T08:12:03.230Z,62.08
2019-04-19T08:12:53.613Z,61.13
2019-04-19T08:14:00.112Z,62.37
2019-04-19T08:17:56.907Z,62.40
2019-04-19T08:27:33.830Z,63.51
2019-04-19T08:28:33.172Z,59.53
2019-04-19T08:29:35.326Z,59.81
2019-04-19T08:30:35.949Z,59.63
2019-04-19T08:31:25.433Z,59.05
2019-04-19T08:32:25.946Z,58.00
2019-04-19T08:33:25.529Z,59.34
2019-04-19T08:34:25.362Z,58.80
2019-04-19T08:35:25.612Z,58.61
2019-04-19T08:36:32.189Z,58.70
2019-04-19T08:37:29.968Z,58.92
2019-04-19T08:38:28.679Z,57.55
2019-04-19T08:39:42.368Z,58.70
2019-04-19T08:40:45.655Z,58.80
2019-04-19T08:41:39.783Z,57.75
2019-04-19T08:42:46.057Z,58.32
2019-04-19T08:43:41.519Z,56.98
2019-04-19T08:44:38.670Z,57.26
2019-04-19T08:45:26.067Z,57.62
2019-04-19T08:46:23.970Z,57.71
2019-04-19T08:47:32.642Z,57.62
2019-04-19T08:48:33.720Z,56.85
2019-04-19T08:49:30.172Z,56.09
2019-04-19T08:50:22.897Z,56.60
2019-04-19T08:51:28.607Z,55.61
2019-04-19T08:52:27.335Z,55.23
2019-04-19T08:53:36.048Z,55.54
2019-04-19T08:54:41.219Z,55.54
2019-04-19T08:55:41.823Z,54.97
2019-04-19T08:56:33.644Z,54.68
2019-04-19T08:57:25.249Z,55.47
2019-04-19T08:58:37.718Z,53.66
2019-04-19T08:59:45.470Z,51.93
2019-04-19T09:00:52.189Z,53.66
2019-04-19T09:01:47.466Z,52.87
2019-04-19T09:02:38.916Z,54.30
2019-04-19T09:03:45.226Z,54.23
2019-04-19T09:04:39.613Z,55.10
2019-04-19T09:05:36.571Z,54.52
2019-04-19T09:07:32.377Z,54.64
2019-04-19T09:07:49.023Z,52.51
2019-04-19T09:08:37.422Z,52.20
2019-04-19T09:09:48.153Z,53.82
2019-04-19T09:10:41.566Z,55.96
2019-04-19T09:11:35.389Z,54.83
2019-04-19T09:12:34.525Z,54.74
2019-04-19T09:13:44.457Z,53.04
2019-04-19T09:14:39.565Z,51.70
2019-04-19T09:15:34.279Z,52.37
2019-04-19T09:16:36.719Z,50.62
2019-04-19T09:17:50.129Z,50.24
2019-04-19T09:18:46.491Z,49.35
2019-04-19T09:20:07.384Z,51.75
2019-04-19T09:20:38.688Z,52.15
2019-04-19T09:21:34.468Z,52.34
2019-04-19T09:22:35.885Z,52.06
2019-04-19T09:23:31.143Z,51.51
2019-04-19T09:24:31.142Z,51.58
2019-04-19T09:25:29.085Z,52.18
2019-04-19T09:26:38.585Z,50.62
2019-04-19T09:27:42.063Z,50.15
2019-04-19T09:28:44.873Z,50.31
2019-04-19T09:29:39.910Z,51.68
2019-04-19T09:30:36.797Z,52.44
2019-04-19T09:31:31.997Z,52.63
2019-04-19T09:32:23.667Z,51.68
2019-04-19T09:33:24.203Z,51.56
2019-04-19T09:34:20.761Z,51.56
2019-04-19T09:35:20.384Z,50.98
2019-04-19T09:36:20.375Z,51.17
2019-04-19T09:37:30.337Z,51.56
2019-04-19T09:38:29.900Z,50.29
2019-04-19T09:39:31.051Z,52.39
2019-04-19T09:40:28.467Z,53.47
2019-04-19T09:41:24.779Z,51.62
2019-04-19T09:42:31.190Z,51.50
2019-04-19T09:43:32.094Z,52.55
2019-04-19T09:44:25.867Z,53.03
2019-04-19T09:45:16.690Z,54.59
2019-04-19T09:46:16.751Z,53.08
2019-04-19T09:47:16.332Z,51.29
2019-04-19T09:48:36.884Z,51.77
2019-04-19T09:49:35.451Z,51.27
2019-04-19T09:50:33.700Z,51.91
2019-04-19T09:51:33.969Z,52.39
2019-04-19T09:52:39.714Z,52.20
2019-04-19T09:53:44.786Z,52.96
2019-04-19T09:54:41.620Z,52.08
2019-04-19T09:55:33.215Z,52.65
2019-04-19T09:56:33.784Z,53.22
2019-04-19T09:57:32.749Z,52.94
2019-04-19T09:58:30.189Z,53.99
2019-04-19T09:59:24.181Z,53.61
2019-04-19T10:00:18.831Z,53.41
2019-04-19T10:01:14.582Z,53.06
2019-04-19T10:02:22.544Z,51.72
2019-04-19T10:03:24.773Z,51.62
2019-04-19T10:04:14.786Z,52.01
2019-04-19T10:05:14.786Z,50.64
2019-04-19T10:06:14.817Z,50.45
2019-04-19T10:07:14.535Z,49.52
2019-04-19T10:08:13.699Z,51.20
2019-04-19T10:09:17.120Z,50.34
2019-04-19T10:10:15.951Z,48.80
2019-04-19T10:11:12.993Z,49.16
2019-04-19T10:12:13.257Z,50.60
2019-04-19T10:13:13.931Z,49.07
2019-04-19T10:14:13.413Z,49.86
2019-04-19T10:15:12.487Z,49.16
2019-04-19T10:16:12.499Z,47.44
2019-04-19T10:17:13.582Z,48.02
2019-04-19T10:18:12.513Z,47.16
2019-04-19T10:19:13.184Z,47.61
2019-04-19T10:20:12.887Z,49.33
2019-04-19T10:21:19.187Z,50.12
2019-04-19T10:22:12.393Z,50.50
2019-04-19T10:23:11.518Z,50.15
2019-04-19T10:24:14.777Z,47.20
2019-04-19T10:25:11.373Z,47.06
2019-04-19T10:26:13.834Z,45.43
2019-04-19T10:27:11.021Z,45.52
2019-04-19T10:28:11.922Z,46.98
2019-04-19T10:29:19.942Z,44.09
2019-04-19T10:30:11.827Z,43.60
2019-04-19T10:31:11.397Z,44.16
2019-04-19T10:32:10.677Z,45.40
2019-04-19T10:33:10.815Z,45.89
2019-04-19T10:34:10.172Z,46.36
2019-04-19T10:35:11.401Z,45.98
2019-04-19T10:36:10.753Z,44.33
2019-04-19T10:37:10.822Z,45.65
2019-04-19T10:38:09.688Z,47.73
2019-04-19T10:39:09.803Z,47.23
2019-04-19T10:40:09.941Z,47.63
2019-04-19T10:41:09.491Z,47.25
2019-04-19T10:42:10.267Z,48.11
2019-04-19T10:43:09.312Z,47.73
2019-04-19T10:44:15.014Z,47.71
2019-04-19T10:45:10.006Z,47.71
2019-04-19T10:46:09.000Z,47.49
2019-04-19T10:47:10.009Z,47.39
2019-04-19T10:48:09.661Z,48.75
2019-04-19T10:49:15.528Z,48.49
2019-04-19T10:50:20.450Z,47.08
2019-04-19T10:51:09.512Z,46.53
2019-04-19T10:52:07.986Z,45.81
2019-04-19T10:53:08.200Z,42.94
2019-04-19T10:54:08.560Z,42.17
2019-04-19T10:55:08.631Z,40.83
2019-04-19T10:56:08.113Z,40.92
2019-04-19T10:57:08.268Z,40.84
2019-04-19T10:58:07.408Z,43.74
2019-04-19T10:59:07.165Z,42.60
2019-04-19T11:00:07.307Z,43.74
2019-04-19T11:01:07.309Z,42.67
2019-04-19T11:02:08.112Z,41.88
2019-04-19T11:03:06.656Z,42.19
2019-04-19T11:04:06.797Z,42.50
2019-04-19T11:05:07.247Z,41.35
2019-04-19T11:06:06.290Z,40.56
2019-04-19T11:07:07.497Z,41.11
2019-04-19T11:08:06.049Z,41.48
2019-04-19T11:09:06.802Z,43.80
2019-04-19T11:10:05.810Z,42.44
2019-04-19T11:11:05.694Z,41.84
2019-04-19T11:12:06.077Z,41.74
2019-04-19T11:13:05.450Z,42.49
2019-04-19T11:14:06.044Z,43.83
2019-04-19T11:15:06.522Z,43.56
2019-04-19T11:16:05.085Z,44.26
2019-04-19T11:17:05.430Z,43.30
2019-04-19T11:18:05.525Z,42.36
2019-04-19T11:19:15.320Z,42.34
2019-04-19T11:20:21.382Z,42.44
2019-04-19T11:21:05.272Z,42.74
2019-04-19T11:22:05.653Z,42.34
2019-04-19T11:23:04.242Z,41.21
2019-04-19T11:24:05.334Z,41.33
2019-04-19T11:25:04.007Z,41.88
2019-04-19T11:26:04.948Z,41.19
2019-04-19T11:27:03.759Z,41.19
2019-04-19T11:28:04.898Z,40.52
2019-04-19T11:29:03.866Z,41.27
2019-04-19T11:30:03.423Z,42.58
2019-04-19T11:31:04.630Z,42.76
2019-04-19T11:32:03.764Z,42.56
2019-04-19T11:33:03.180Z,42.08
2019-04-19T11:34:02.914Z,42.11
2019-04-19T11:35:03.262Z,40.88
2019-04-19T11:36:03.650Z,40.84
2019-04-19T11:37:02.551Z,42.27
2019-04-19T11:38:02.782Z,42.66
2019-04-19T11:39:03.043Z,42.47
2019-04-19T11:40:03.405Z,44.19
2019-04-19T11:41:03.066Z,42.40
2019-04-19T11:42:03.165Z,42.01
2019-04-19T11:43:01.822Z,42.60
2019-04-19T11:44:04.073Z,43.35
2019-04-19T11:45:01.762Z,44.59
2019-04-19T11:46:02.074Z,44.79
2019-04-19T11:47:03.399Z,43.54
2019-04-19T11:48:01.316Z,43.47
2019-04-19T11:49:01.740Z,41.57
2019-04-19T11:50:02.027Z,42.24
2019-04-19T11:51:00.851Z,41.57
2019-04-19T11:52:00.780Z,41.11
2019-04-19T11:53:01.897Z,41.67
2019-04-19T11:54:00.760Z,40.42
2019-04-19T11:55:02.869Z,38.72
2019-04-19T11:56:00.407Z,40.35
2019-04-19T11:57:05.585Z,39.28
2019-04-19T11:58:00.001Z,40.59
2019-04-19T11:59:00.490Z,41.74
2019-04-19T12:00:01.111Z,41.91
2019-04-19T12:01:00.147Z,41.61
2019-04-19T12:01:59.871Z,40.94
2019-04-19T12:03:00.173Z,41.20
2019-04-19T12:04:00.370Z,41.32
2019-04-19T12:05:01.088Z,41.65
2019-04-19T12:06:00.190Z,42.82
2019-04-19T12:06:58.908Z,42.00
2019-04-19T12:07:58.788Z,39.89
2019-04-19T12:08:58.670Z,38.60
2019-04-19T12:09:58.649Z,38.79
2019-04-19T12:10:58.422Z,38.89
2019-04-19T12:11:58.303Z,38.68
2019-04-19T12:12:59.276Z,39.25
2019-04-19T12:13:58.408Z,40.61
2019-04-19T12:14:57.937Z,39.94
2019-04-19T12:15:58.905Z,39.77
2019-04-19T12:16:57.694Z,37.87
2019-04-19T12:17:57.922Z,38.83
2019-04-19T12:18:58.177Z,39.01
2019-04-19T12:20:02.082Z,39.87
2019-04-19T12:20:57.500Z,40.33
2019-04-19T12:21:57.114Z,40.00
2019-04-19T12:22:57.942Z,40.31
2019-04-19T12:23:56.998Z,40.42
2019-04-19T12:24:57.320Z,41.38
2019-04-19T12:25:57.556Z,41.15
2019-04-19T12:26:57.667Z,41.13
2019-04-19T12:27:57.377Z,41.65
2019-04-19T12:28:57.510Z,41.00
2019-04-19T12:29:57.351Z,41.23
2019-04-19T12:30:58.577Z,38.95
2019-04-19T12:31:55.946Z,37.72
2019-04-19T12:32:55.760Z,37.43
2019-04-19T12:33:55.637Z,37.82
2019-04-19T12:34:55.517Z,37.66
2019-04-19T12:35:55.398Z,35.89
2019-04-19T12:36:55.284Z,34.98
2019-04-19T12:37:57.737Z,35.83
2019-04-19T12:38:55.046Z,36.77
2019-04-19T12:39:54.915Z,37.63
2019-04-19T12:40:56.071Z,39.06
2019-04-19T12:41:55.627Z,39.25
2019-04-19T12:42:55.950Z,39.47
2019-04-19T12:43:54.429Z,39.48
2019-04-19T12:44:54.386Z,40.00
2019-04-19T12:45:55.529Z,39.64
2019-04-19T12:46:55.135Z,38.76
2019-04-19T12:47:55.167Z,37.43
2019-04-19T12:48:54.220Z,36.88
2019-04-19T12:49:59.575Z,36.40
2019-04-19T12:50:53.673Z,36.36
2019-04-19T12:51:54.394Z,36.91
2019-04-19T12:52:53.905Z,35.88
2019-04-19T12:53:54.081Z,35.11
2019-04-19T12:54:54.269Z,36.11
2019-04-19T12:55:53.669Z,35.26
2019-04-19T12:56:53.859Z,35.10
2019-04-19T12:57:54.067Z,36.37
2019-04-19T12:58:53.837Z,35.33
2019-04-19T12:59:53.862Z,33.26
2019-04-19T13:00:52.379Z,32.71
2019-04-19T13:01:53.576Z,32.15
2019-04-19T13:02:52.140Z,31.77
2019-04-19T13:03:52.502Z,32.94
2019-04-19T13:04:51.903Z,32.31
2019-04-19T13:05:51.786Z,32.71
2019-04-19T13:06:52.488Z,32.59
2019-04-19T13:07:51.545Z,33.07
2019-04-19T13:08:51.434Z,33.20
2019-04-19T13:09:51.311Z,33.91
2019-04-19T13:10:51.237Z,33.48
2019-04-19T13:11:51.070Z,32.65
2019-04-19T13:12:51.888Z,33.25
2019-04-19T13:13:51.940Z,32.87
2019-04-19T13:14:51.318Z,33.50
2019-04-19T13:15:50.597Z,35.11
2019-04-19T13:16:50.602Z,35.71
2019-04-19T13:17:50.373Z,34.44
2019-04-19T13:18:50.241Z,34.34
2019-04-19T13:20:02.064Z,36.44